This is the latest recevied weather packets stored in our database for station/object W2BP-13. If no packets are shown the sender has not sent any weather packets the latest 10 day(s).
| Time | Temp. | Humidity | Pressure | Rain* | Wind** | Luminosity | Snow |
|---|---|---|---|---|---|---|---|
| 1777843532 | 31.11° C | 23% | 1015.1 hPa | 0 mm | - | - | - |
| 1777842633 | 30.56° C | 23% | 1015.5 hPa | 0 mm | - | - | - |
| 1777841732 | 31.11° C | 21% | 1015.6 hPa | 0 mm | - | - | - |
| 1777840833 | 30° C | 24% | 1015.8 hPa | 0 mm | - | - | - |
| 1777839932 | 30° C | 26% | 1015.8 hPa | 0 mm | - | - | - |
| 1777839033 | 29.44° C | 29% | 1015.9 hPa | 0 mm | - | - | - |
| 1777838133 | 29.44° C | 29% | 1016.3 hPa | 0 mm | - | - | - |
| 1777837233 | 28.89° C | 30% | 1016.6 hPa | 0 mm | - | - | - |
| 1777836332 | 28.33° C | 33% | 1016.6 hPa | 0 mm | - | - | - |
| 1777835432 | 27.78° C | 33% | 1016.8 hPa | 0 mm | - | - | - |
| 1777834532 | 27.22° C | 33% | 1017.2 hPa | 0 mm | - | - | - |
| 1777833633 | 27.22° C | 36% | 1017.1 hPa | 0 mm | - | - | - |
| 1777832732 | 26.67° C | 34% | 1017.2 hPa | 0 mm | - | - | - |
| 1777831833 | 26.67° C | 33% | 1017.6 hPa | 0 mm | - | - | - |
| 1777830933 | 25.56° C | 39% | 1017.7 hPa | 0 mm | - | - | - |
| 1777830032 | 25° C | 40% | 1017.6 hPa | 0 mm | - | - | - |
| 1777829132 | 25° C | 41% | 1017.6 hPa | 0 mm | - | - | - |
| 1777828233 | 23.89° C | 41% | 1017.8 hPa | 0 mm | - | - | - |
| 1777827332 | 22.78° C | 44% | 1018 hPa | 0 mm | - | - | - |
| 1777826432 | 22.22° C | 48% | 1017.8 hPa | 0 mm | - | - | - |
| 1777825532 | 21.11° C | 51% | 1018.2 hPa | 0 mm | - | - | - |
| 1777824632 | 20.56° C | 54% | 1018.2 hPa | 0 mm | - | - | - |
| 1777823732 | 18.89° C | 61% | 1018.2 hPa | 0 mm | - | - | - |
| 1777822832 | 17.78° C | 64% | 1018.1 hPa | 0 mm | - | - | - |
| 1777821932 | 17.22° C | 64% | 1018.2 hPa | 0 mm | - | - | - |
* Rain latest hour (hover to see other rain measurements)
** Current wind speed in m/s (hover to see current wind gust speed)